Third Lake, Illinois
Current Conditions -  °F | °C
As of 11:55 PM on Tuesday 21 Oct 2014 (Local Time) from KUGN Reporting Station
Broken Clouds Broken Clouds  
Wind Chill: 42°   Ceiling: 2700
Heat Index: 42°   Visibility: 10mi
Dew Point: 38°   Wind: 3mph
Humidity: 85%   Direction: 360°N
Pressure: 30.25"   Gusts: NA
Location:  42.3279°N, 88.0546°W
Report Text: KUGN 220455Z 36003KT 10SM BKN027 06/03 A3025 RMK AO2 SLP250 T00560033
Loading
Personal Weather Stations






























Interactive Weather Map
Tropical Storm Tracking
New forecast layout! Learn more

10-Day Weather Forecast

Advertisements
Track Severe Weather on mobile